Ile-A-La-Crosse, Canada
Current Conditions -  °F | °C
As of 4:17 AM on Monday 29 Dec 2014 (Local Time) from CWHN Reporting Station
Overcast Overcast  
Wind Chill: -31°   Ceiling: 900
Heat Index: -15°   Visibility: 9mi
Dew Point: -22°   Wind: 7mph
Humidity: 70%   Direction: 330°NNW
Pressure: 30.76"   Gusts: NA
Location:  55.43°N, 107.9°W
Report Text: CWHN 291017Z AUTO 33006KT 9SM OVC009 M26/M30 A3076
Loading
Personal Weather Stations






























Interactive Weather Map New forecast layout! Learn more

10-Day Weather Forecast

Advertisements
Track Severe Weather on mobile